createdAt,value
2024-02-15T00:01:51.850Z,12.78
2024-02-15T00:04:19.425Z,12.81
2024-02-15T00:06:45.917Z,12.82
2024-02-15T00:09:13.331Z,12.82
2024-02-15T00:11:40.305Z,12.78
2024-02-15T00:14:06.887Z,12.74
2024-02-15T00:16:34.549Z,12.75
2024-02-15T00:19:01.296Z,12.72
2024-02-15T00:21:28.580Z,12.71
2024-02-15T00:23:56.665Z,12.68
2024-02-15T00:26:23.319Z,12.68
2024-02-15T00:28:49.694Z,12.67
2024-02-15T00:31:16.364Z,12.65
2024-02-15T00:33:43.179Z,12.65
2024-02-15T00:36:10.731Z,12.67
2024-02-15T00:38:37.833Z,12.67
2024-02-15T00:41:07.265Z,12.70
2024-02-15T00:43:35.521Z,12.67
2024-02-15T00:46:02.409Z,12.63
2024-02-15T00:48:29.140Z,12.64
2024-02-15T00:50:56.046Z,12.62
2024-02-15T00:53:22.582Z,12.61
2024-02-15T00:55:49.967Z,12.62
2024-02-15T00:58:16.221Z,12.62
2024-02-15T01:00:43.038Z,12.65
2024-02-15T01:03:09.462Z,12.65
2024-02-15T01:05:36.335Z,12.64
2024-02-15T01:08:02.996Z,12.67
2024-02-15T01:10:29.498Z,12.69
2024-02-15T01:12:56.610Z,12.70
2024-02-15T01:15:25.038Z,12.72
2024-02-15T01:17:51.502Z,12.71
2024-02-15T01:20:18.298Z,12.71
2024-02-15T01:22:44.620Z,12.74
2024-02-15T01:25:14.314Z,12.80
2024-02-15T01:27:40.701Z,12.80
2024-02-15T01:30:08.878Z,12.80
2024-02-15T01:32:35.422Z,12.78
2024-02-15T01:35:03.228Z,12.79
2024-02-15T01:37:29.967Z,12.82
2024-02-15T01:39:56.763Z,12.83
2024-02-15T01:42:23.514Z,12.85
2024-02-15T01:44:50.005Z,12.87
2024-02-15T01:47:18.520Z,12.89
2024-02-15T01:49:45.026Z,12.86
2024-02-15T01:52:12.693Z,12.87
2024-02-15T01:54:39.470Z,12.88
2024-02-15T01:57:06.819Z,12.85
2024-02-15T01:59:33.577Z,12.84
2024-02-15T02:02:01.145Z,12.78
2024-02-15T02:04:28.094Z,12.79
2024-02-15T02:06:54.614Z,12.78
2024-02-15T02:09:21.131Z,12.77
2024-02-15T02:11:47.458Z,12.84
2024-02-15T02:14:13.708Z,12.85
2024-02-15T02:16:39.721Z,12.85
2024-02-15T02:19:06.142Z,12.86
2024-02-15T02:21:33.247Z,12.85
2024-02-15T02:24:01.813Z,12.86
2024-02-15T02:26:30.258Z,12.83
2024-02-15T02:28:57.824Z,12.83
2024-02-15T02:31:26.637Z,12.84
2024-02-15T02:33:54.591Z,12.80
2024-02-15T02:36:21.177Z,12.80
2024-02-15T02:38:47.690Z,12.81
2024-02-15T02:41:14.234Z,12.80
2024-02-15T02:43:41.241Z,12.82
2024-02-15T02:46:10.868Z,12.85
2024-02-15T02:48:37.520Z,12.86
2024-02-15T02:51:04.879Z,12.84
2024-02-15T02:53:31.402Z,12.86
2024-02-15T02:55:57.698Z,12.83
2024-02-15T02:58:24.250Z,12.81
2024-02-15T03:00:51.989Z,12.81
2024-02-15T03:03:18.473Z,12.78
2024-02-15T03:05:45.081Z,12.74
2024-02-15T03:08:12.237Z,12.71
2024-02-15T03:10:38.822Z,12.72
2024-02-15T03:13:06.075Z,12.71
2024-02-15T03:15:32.393Z,12.68
2024-02-15T03:17:59.714Z,12.68
2024-02-15T03:20:26.144Z,12.68
2024-02-15T03:22:53.756Z,12.66
2024-02-15T03:25:19.872Z,12.69
2024-02-15T03:27:46.542Z,12.73
2024-02-15T03:30:13.202Z,12.72
2024-02-15T03:32:39.778Z,12.72
2024-02-15T03:35:07.149Z,12.72
2024-02-15T03:37:33.305Z,12.71
2024-02-15T03:39:59.528Z,12.71
2024-02-15T03:42:26.171Z,12.68
2024-02-15T03:44:52.506Z,12.67
2024-02-15T03:47:19.308Z,12.66
2024-02-15T03:49:45.890Z,12.63
2024-02-15T03:52:12.885Z,12.61
2024-02-15T03:54:39.304Z,12.65
2024-02-15T03:57:06.294Z,12.67
2024-02-15T03:59:32.657Z,12.66
2024-02-15T04:01:59.121Z,12.64
2024-02-15T04:04:25.756Z,12.65
2024-02-15T04:06:52.438Z,12.68
2024-02-15T04:09:19.678Z,12.71
2024-02-15T04:11:46.258Z,12.77
2024-02-15T04:14:12.618Z,12.83
2024-02-15T04:16:39.398Z,12.88
2024-02-15T04:19:05.850Z,12.88
2024-02-15T04:21:32.237Z,12.90
2024-02-15T04:23:58.502Z,12.89
2024-02-15T04:26:25.486Z,12.87
2024-02-15T04:28:51.959Z,12.89
2024-02-15T04:31:18.202Z,12.90
2024-02-15T04:33:46.913Z,12.91
2024-02-15T04:36:13.562Z,12.88
2024-02-15T04:38:39.964Z,12.86
2024-02-15T04:41:06.691Z,12.82
2024-02-15T04:43:33.454Z,12.77
2024-02-15T04:45:59.784Z,12.77
2024-02-15T04:48:26.220Z,12.75
2024-02-15T04:50:52.536Z,12.71
2024-02-15T04:53:18.672Z,12.72
2024-02-15T04:55:45.142Z,12.70
2024-02-15T04:58:11.292Z,12.71
2024-02-15T05:00:38.306Z,12.69
2024-02-15T05:03:04.878Z,12.67
2024-02-15T05:05:31.208Z,12.67
2024-02-15T05:07:57.409Z,12.69
2024-02-15T05:10:23.576Z,12.71
2024-02-15T05:12:50.158Z,12.70
2024-02-15T05:15:16.619Z,12.72
2024-02-15T05:17:43.804Z,12.74
2024-02-15T05:20:10.692Z,12.71
2024-02-15T05:22:37.024Z,12.68
2024-02-15T05:25:03.436Z,12.67
2024-02-15T05:27:29.656Z,12.65
2024-02-15T05:29:56.109Z,12.62
2024-02-15T05:32:22.318Z,12.60
2024-02-15T05:34:49.263Z,12.60
2024-02-15T05:37:15.615Z,12.58
2024-02-15T05:39:42.061Z,12.55
2024-02-15T05:42:08.293Z,12.53
2024-02-15T05:44:35.008Z,12.54
2024-02-15T05:47:01.181Z,12.55
2024-02-15T05:49:27.559Z,12.54
2024-02-15T05:51:54.701Z,12.55
2024-02-15T05:54:21.077Z,12.57
2024-02-15T05:56:47.290Z,12.55
2024-02-15T05:59:13.627Z,12.56
2024-02-15T06:01:40.450Z,12.57
2024-02-15T06:04:07.119Z,12.58
2024-02-15T06:06:34.009Z,12.57
2024-02-15T06:09:01.337Z,12.60
2024-02-15T06:11:27.545Z,12.59
2024-02-15T06:13:53.749Z,12.60
2024-02-15T06:16:20.144Z,12.57
2024-02-15T06:18:47.810Z,12.58
2024-02-15T06:21:14.257Z,12.58
2024-02-15T06:23:40.458Z,12.61
2024-02-15T06:26:07.274Z,12.63
2024-02-15T06:28:33.556Z,12.60
2024-02-15T06:31:00.195Z,12.60
2024-02-15T06:33:26.553Z,12.59
2024-02-15T06:35:53.725Z,12.60
2024-02-15T06:38:20.032Z,12.59
2024-02-15T06:40:46.364Z,12.54
2024-02-15T06:43:13.656Z,12.52
2024-02-15T06:45:40.326Z,12.51
2024-02-15T06:48:07.532Z,12.45
2024-02-15T06:50:33.734Z,12.46
2024-02-15T06:52:59.985Z,12.45
2024-02-15T06:55:26.420Z,12.44
2024-02-15T06:57:52.854Z,12.44
2024-02-15T07:00:19.927Z,12.46
2024-02-15T07:02:46.269Z,12.47
2024-02-15T07:05:12.487Z,12.48
2024-02-15T07:07:38.705Z,12.45
2024-02-15T07:10:05.886Z,12.49
2024-02-15T07:12:32.417Z,12.48
2024-02-15T07:14:58.703Z,12.51
2024-02-15T07:17:25.792Z,12.50
2024-02-15T07:19:52.009Z,12.49
2024-02-15T07:22:18.307Z,12.51
2024-02-15T07:24:44.519Z,12.55
2024-02-15T07:27:11.055Z,12.55
2024-02-15T07:29:37.495Z,12.54
2024-02-15T07:32:04.835Z,12.57
2024-02-15T07:34:32.069Z,12.58
2024-02-15T07:36:58.803Z,12.58
2024-02-15T07:39:25.549Z,12.57
2024-02-15T07:41:51.876Z,12.62
2024-02-15T07:44:18.228Z,12.66
2024-02-15T07:46:44.654Z,12.68
2024-02-15T07:49:11.180Z,12.72
2024-02-15T07:51:38.189Z,12.73
2024-02-15T07:54:04.793Z,12.76
2024-02-15T07:56:31.021Z,12.73
2024-02-15T07:58:57.159Z,12.72
2024-02-15T08:01:24.907Z,12.69
2024-02-15T08:03:52.287Z,12.73
2024-02-15T08:06:18.652Z,12.77
2024-02-15T08:08:47.097Z,12.75
2024-02-15T08:11:14.272Z,12.71
2024-02-15T08:13:40.826Z,12.74
2024-02-15T08:16:07.907Z,12.74
2024-02-15T08:18:34.197Z,12.76
2024-02-15T08:21:00.673Z,12.76
2024-02-15T08:23:26.906Z,12.76
2024-02-15T08:25:53.713Z,12.75
2024-02-15T08:28:21.875Z,12.79
2024-02-15T08:30:49.666Z,12.72
2024-02-15T08:33:15.909Z,12.72
2024-02-15T08:35:42.360Z,12.70
2024-02-15T08:38:08.656Z,12.73
2024-02-15T08:40:35.243Z,12.80
2024-02-15T08:43:02.835Z,12.86
2024-02-15T08:45:29.271Z,12.95
2024-02-15T08:47:55.877Z,13.01
2024-02-15T08:50:22.540Z,13.06
2024-02-15T08:52:49.226Z,13.10
2024-02-15T08:55:16.151Z,13.19
2024-02-15T08:57:43.029Z,13.17
2024-02-15T09:00:11.791Z,13.23
2024-02-15T09:02:38.116Z,13.30
2024-02-15T09:05:04.697Z,13.36
2024-02-15T09:07:30.675Z,13.40
2024-02-15T09:09:56.781Z,13.54
2024-02-15T09:12:23.081Z,13.65
2024-02-15T09:14:49.450Z,13.79
2024-02-15T09:17:16.393Z,13.92
2024-02-15T09:19:42.849Z,13.95
2024-02-15T09:22:09.125Z,13.94
2024-02-15T09:24:35.408Z,13.92
2024-02-15T09:27:02.191Z,13.89
2024-02-15T09:29:28.768Z,13.93
2024-02-15T09:31:54.852Z,13.92
2024-02-15T09:34:21.913Z,13.93
2024-02-15T09:36:48.214Z,13.90
2024-02-15T09:39:14.389Z,13.86
2024-02-15T09:41:40.812Z,13.88
2024-02-15T09:44:07.894Z,13.92
2024-02-15T09:46:36.481Z,13.95
2024-02-15T09:49:03.807Z,14.06
2024-02-15T09:51:33.651Z,14.11
2024-02-15T09:54:01.439Z,14.11
2024-02-15T09:56:31.128Z,14.18
2024-02-15T09:58:59.709Z,14.25
2024-02-15T10:01:27.799Z,14.30
2024-02-15T10:03:54.155Z,14.31
2024-02-15T10:06:20.959Z,14.40
2024-02-15T10:08:47.757Z,14.42
2024-02-15T10:11:14.036Z,14.46
2024-02-15T10:13:40.591Z,14.58
2024-02-15T10:16:17.398Z,14.75
2024-02-15T10:18:44.094Z,14.71
2024-02-15T10:21:10.542Z,14.74
2024-02-15T10:23:36.757Z,14.78
2024-02-15T10:26:19.899Z,14.92
2024-02-15T10:28:46.377Z,14.93
2024-02-15T10:31:12.870Z,15.00
2024-02-15T10:33:39.888Z,15.12
2024-02-15T10:36:06.887Z,15.21
2024-02-15T10:38:33.203Z,15.33
2024-02-15T10:41:04.263Z,15.47
2024-02-15T10:43:31.784Z,15.57
2024-02-15T10:46:01.167Z,15.66
2024-02-15T10:48:27.680Z,15.74
2024-02-15T10:50:56.586Z,15.91
2024-02-15T10:53:27.779Z,16.24
2024-02-15T10:56:00.360Z,16.40
2024-02-15T10:58:33.324Z,16.58
2024-02-15T11:01:00.449Z,16.85
2024-02-15T11:03:32.769Z,17.19
2024-02-15T11:06:02.910Z,17.35
2024-02-15T11:08:29.855Z,17.47
2024-02-15T11:10:56.289Z,17.58
2024-02-15T11:13:22.592Z,17.56
2024-02-15T11:15:49.605Z,17.61
2024-02-15T11:18:44.027Z,17.77
2024-02-15T11:21:10.706Z,17.65
2024-02-15T11:23:37.559Z,17.59
2024-02-15T11:26:08.701Z,17.63
2024-02-15T11:28:38.397Z,17.71
2024-02-15T11:31:09.109Z,17.71
2024-02-15T11:33:36.688Z,17.68
2024-02-15T11:36:04.069Z,17.71
2024-02-15T11:38:30.450Z,17.71
2024-02-15T11:41:06.471Z,17.81
2024-02-15T11:43:49.847Z,17.94
2024-02-15T11:46:17.643Z,18.01
2024-02-15T11:48:44.602Z,18.14
2024-02-15T11:51:11.514Z,18.14
2024-02-15T11:53:37.994Z,18.16
2024-02-15T11:56:04.807Z,18.23
2024-02-15T11:58:33.626Z,18.30
2024-02-15T12:01:00.492Z,18.30
2024-02-15T12:03:28.076Z,18.29
2024-02-15T12:05:55.347Z,18.27
2024-02-15T12:08:21.863Z,18.37
2024-02-15T12:10:57.834Z,18.47
2024-02-15T12:13:24.239Z,18.36
2024-02-15T12:16:00.336Z,18.48
2024-02-15T12:18:27.426Z,18.45
2024-02-15T12:20:53.950Z,18.52
2024-02-15T12:23:20.371Z,18.56
2024-02-15T12:25:51.901Z,18.60
2024-02-15T12:28:18.318Z,18.55
2024-02-15T12:30:44.812Z,18.51
2024-02-15T12:33:13.182Z,18.62
2024-02-15T12:35:40.520Z,18.62
2024-02-15T12:38:07.117Z,18.64
2024-02-15T12:40:34.623Z,18.69
2024-02-15T12:43:01.392Z,18.61
2024-02-15T12:45:28.612Z,18.67
2024-02-15T12:47:55.774Z,18.70
2024-02-15T12:50:23.411Z,18.70
2024-02-15T12:52:51.247Z,18.69
2024-02-15T12:55:19.874Z,18.72
2024-02-15T12:57:48.935Z,18.79
2024-02-15T13:00:15.723Z,18.81
2024-02-15T13:02:43.438Z,18.94
2024-02-15T13:05:10.603Z,18.97
2024-02-15T13:07:37.521Z,19.10
2024-02-15T13:10:05.308Z,19.11
2024-02-15T13:12:32.045Z,19.08
2024-02-15T13:14:58.482Z,19.07
2024-02-15T13:17:24.949Z,19.05
2024-02-15T13:19:51.171Z,19.07
2024-02-15T13:22:17.665Z,19.02
2024-02-15T13:24:46.033Z,18.78
2024-02-15T13:27:13.335Z,18.66
2024-02-15T13:29:40.317Z,18.57
2024-02-15T13:32:07.349Z,18.64
2024-02-15T13:34:33.731Z,18.86
2024-02-15T13:37:00.237Z,18.93
2024-02-15T13:39:27.505Z,19.11
2024-02-15T13:41:53.811Z,19.14
2024-02-15T13:44:21.023Z,19.26
2024-02-15T13:46:47.422Z,19.25
2024-02-15T13:49:22.736Z,19.04
2024-02-15T13:51:53.035Z,18.82
2024-02-15T13:54:19.047Z,18.60
2024-02-15T13:56:45.181Z,18.59
2024-02-15T13:59:11.186Z,18.43
2024-02-15T14:01:37.792Z,18.37
2024-02-15T14:04:03.797Z,18.30
2024-02-15T14:06:29.843Z,18.22
2024-02-15T14:08:55.822Z,18.17
2024-02-15T14:11:21.772Z,18.15
2024-02-15T14:13:47.759Z,18.13
2024-02-15T14:16:13.810Z,18.10
2024-02-15T14:18:40.399Z,18.08
2024-02-15T14:21:06.646Z,18.11
2024-02-15T14:23:32.600Z,18.08
2024-02-15T14:25:58.733Z,17.97
2024-02-15T14:28:24.662Z,17.85
2024-02-15T14:30:50.624Z,17.68
2024-02-15T14:33:21.894Z,17.58
2024-02-15T14:35:50.674Z,17.48
2024-02-15T14:38:16.956Z,17.40
2024-02-15T14:40:46.223Z,17.32
2024-02-15T14:43:12.553Z,17.25
2024-02-15T14:45:39.931Z,17.21
2024-02-15T14:48:06.681Z,17.19
2024-02-15T14:50:32.668Z,17.18
2024-02-15T14:52:59.325Z,17.17
2024-02-15T14:55:25.522Z,17.22
2024-02-15T14:57:51.479Z,17.27
2024-02-15T15:00:17.837Z,17.29
2024-02-15T15:02:44.412Z,17.30
2024-02-15T15:05:10.567Z,17.34
2024-02-15T15:07:36.593Z,17.27
2024-02-15T15:10:03.903Z,17.24
2024-02-15T15:12:29.942Z,17.22
2024-02-15T15:14:55.940Z,17.18
2024-02-15T15:17:21.929Z,17.14
2024-02-15T15:19:50.664Z,17.06
2024-02-15T15:22:17.258Z,17.05
2024-02-15T15:24:43.134Z,17.05
2024-02-15T15:27:09.893Z,17.02
2024-02-15T15:29:35.821Z,16.95
2024-02-15T15:32:01.900Z,16.96
2024-02-15T15:34:27.845Z,17.04
2024-02-15T15:36:53.870Z,17.13
2024-02-15T15:39:19.753Z,17.34
2024-02-15T15:41:46.038Z,17.51
2024-02-15T15:44:12.648Z,17.64
2024-02-15T15:46:38.611Z,17.68
2024-02-15T15:49:04.638Z,17.76
2024-02-15T15:51:30.726Z,17.75
2024-02-15T15:53:56.765Z,17.76
2024-02-15T15:56:22.850Z,17.71
2024-02-15T15:58:50.481Z,17.68
2024-02-15T16:01:18.348Z,17.61
2024-02-15T16:03:44.441Z,17.50
2024-02-15T16:06:10.493Z,17.45
2024-02-15T16:08:36.453Z,17.32
2024-02-15T16:11:02.650Z,17.17
2024-02-15T16:13:28.552Z,17.07
2024-02-15T16:15:55.051Z,16.95
2024-02-15T16:18:22.010Z,16.81
2024-02-15T16:20:48.816Z,16.67
2024-02-15T16:23:15.570Z,16.51
2024-02-15T16:25:41.544Z,16.32
2024-02-15T16:28:07.701Z,16.23
2024-02-15T16:30:33.832Z,16.10
2024-02-15T16:33:00.176Z,15.95
2024-02-15T16:35:26.828Z,15.92
2024-02-15T16:37:52.825Z,15.79
2024-02-15T16:40:18.803Z,15.69
2024-02-15T16:42:45.608Z,15.64
2024-02-15T16:45:12.379Z,15.58
2024-02-15T16:47:38.392Z,15.54
2024-02-15T16:50:05.120Z,15.44
2024-02-15T16:52:31.787Z,15.36
2024-02-15T16:54:57.713Z,15.32
2024-02-15T16:57:23.635Z,15.29
2024-02-15T16:59:50.656Z,15.22
2024-02-15T17:02:16.684Z,15.16
2024-02-15T17:04:42.644Z,15.13
2024-02-15T17:07:08.666Z,15.10
2024-02-15T17:09:36.158Z,15.04
2024-02-15T17:12:02.108Z,14.97
2024-02-15T17:14:28.017Z,14.92
2024-02-15T17:16:54.047Z,14.89
2024-02-15T17:19:20.151Z,14.90
2024-02-15T17:21:46.334Z,14.82
2024-02-15T17:24:12.421Z,14.78
2024-02-15T17:26:43.629Z,14.67
2024-02-15T17:29:09.655Z,14.63
2024-02-15T17:31:35.638Z,14.58
2024-02-15T17:34:02.019Z,14.56
2024-02-15T17:36:27.997Z,14.53
2024-02-15T17:38:54.106Z,14.45
2024-02-15T17:41:20.131Z,14.36
2024-02-15T17:43:46.727Z,14.40
2024-02-15T17:46:12.820Z,14.28
2024-02-15T17:48:38.943Z,14.24
2024-02-15T17:51:05.670Z,14.20
2024-02-15T17:53:31.685Z,14.20
2024-02-15T17:55:57.586Z,14.15
2024-02-15T17:58:23.598Z,14.04
2024-02-15T18:00:50.407Z,13.97
2024-02-15T18:03:16.585Z,14.00
2024-02-15T18:05:42.527Z,13.94
2024-02-15T18:08:08.600Z,13.90
2024-02-15T18:10:34.488Z,13.90
2024-02-15T18:13:00.463Z,13.88
2024-02-15T18:15:27.276Z,13.85
2024-02-15T18:17:54.229Z,13.86
2024-02-15T18:20:20.301Z,13.83
2024-02-15T18:22:46.523Z,13.81
2024-02-15T18:25:12.600Z,13.86
2024-02-15T18:27:38.828Z,13.79
2024-02-15T18:30:06.385Z,13.85
2024-02-15T18:32:32.425Z,13.78
2024-02-15T18:34:59.068Z,13.79
2024-02-15T18:37:25.162Z,13.72
2024-02-15T18:39:51.115Z,13.74
2024-02-15T18:42:17.652Z,13.68
2024-02-15T18:44:43.630Z,13.70
2024-02-15T18:47:09.618Z,13.68
2024-02-15T18:49:38.906Z,13.67
2024-02-15T18:52:10.190Z,13.58
2024-02-15T18:54:38.094Z,13.55
2024-02-15T18:57:04.242Z,13.51
2024-02-15T18:59:30.207Z,13.49
2024-02-15T19:01:56.340Z,13.30
2024-02-15T19:04:22.322Z,13.20
2024-02-15T19:06:48.447Z,13.20
2024-02-15T19:09:15.035Z,13.17
2024-02-15T19:11:40.989Z,13.11
2024-02-15T19:14:07.064Z,13.12
2024-02-15T19:16:33.027Z,13.10
2024-02-15T19:18:58.982Z,13.10
2024-02-15T19:21:25.129Z,13.09
2024-02-15T19:23:51.076Z,13.16
2024-02-15T19:26:17.804Z,13.10
2024-02-15T19:28:43.698Z,13.08
2024-02-15T19:31:09.753Z,12.98
2024-02-15T19:33:44.520Z,12.90
2024-02-15T19:36:18.596Z,12.86
2024-02-15T19:38:44.637Z,12.84
2024-02-15T19:41:10.659Z,12.75
2024-02-15T19:43:37.350Z,12.65
2024-02-15T19:46:03.570Z,12.56
2024-02-15T19:48:29.695Z,12.53
2024-02-15T19:50:55.730Z,12.50
2024-02-15T19:53:21.651Z,12.40
2024-02-15T19:55:47.581Z,12.42
2024-02-15T19:58:13.675Z,12.49
2024-02-15T20:00:40.334Z,12.39
2024-02-15T20:03:06.387Z,12.39
2024-02-15T20:05:32.448Z,12.32
2024-02-15T20:07:58.444Z,12.28
2024-02-15T20:10:24.619Z,12.26
2024-02-15T20:12:51.555Z,12.20
2024-02-15T20:15:17.577Z,12.11
2024-02-15T20:17:44.282Z,12.09
2024-02-15T20:20:10.742Z,12.04
2024-02-15T20:22:39.525Z,11.97
2024-02-15T20:25:07.402Z,11.91
2024-02-15T20:27:33.568Z,11.90
2024-02-15T20:29:59.915Z,11.84
2024-02-15T20:32:25.964Z,11.78
2024-02-15T20:34:52.710Z,11.74
2024-02-15T20:37:18.694Z,11.68
2024-02-15T20:39:44.633Z,11.70
2024-02-15T20:42:10.698Z,11.66
2024-02-15T20:44:36.694Z,11.60
2024-02-15T20:47:02.863Z,11.61
2024-02-15T20:49:28.981Z,11.67
2024-02-15T20:51:55.715Z,11.59
2024-02-15T20:54:21.715Z,11.61
2024-02-15T20:56:47.681Z,11.53
2024-02-15T20:59:13.661Z,11.47
2024-02-15T21:01:39.815Z,11.55
2024-02-15T21:04:06.093Z,11.52
2024-02-15T21:06:32.536Z,11.48
2024-02-15T21:08:59.146Z,11.48
2024-02-15T21:11:25.652Z,11.48
2024-02-15T21:13:51.718Z,11.53
2024-02-15T21:16:18.333Z,11.54
2024-02-15T21:18:44.712Z,11.59
2024-02-15T21:21:10.774Z,11.57
2024-02-15T21:23:36.741Z,11.55
2024-02-15T21:26:03.563Z,11.58
2024-02-15T21:28:29.501Z,11.56
2024-02-15T21:30:55.469Z,11.53
2024-02-15T21:33:21.741Z,11.53
2024-02-15T21:35:47.799Z,11.52
2024-02-15T21:38:13.947Z,11.51
2024-02-15T21:40:39.876Z,11.47
2024-02-15T21:43:06.540Z,11.48
2024-02-15T21:45:32.479Z,11.52
2024-02-15T21:47:58.745Z,11.49
2024-02-15T21:50:24.833Z,11.56
2024-02-15T21:52:51.253Z,11.57
2024-02-15T21:55:17.234Z,11.59
2024-02-15T21:57:43.121Z,11.59
2024-02-15T22:00:10.164Z,11.58
2024-02-15T22:02:39.262Z,11.55
2024-02-15T22:05:06.483Z,11.54
2024-02-15T22:07:32.637Z,11.58
2024-02-15T22:09:58.598Z,11.55
2024-02-15T22:12:24.667Z,11.58
2024-02-15T22:14:50.559Z,11.56
2024-02-15T22:17:17.365Z,11.63
2024-02-15T22:19:43.457Z,11.59
2024-02-15T22:22:09.515Z,11.63
2024-02-15T22:24:35.619Z,11.57
2024-02-15T22:27:02.366Z,11.61
2024-02-15T22:29:28.387Z,11.62
2024-02-15T22:31:54.498Z,11.65
2024-02-15T22:34:21.125Z,11.64
2024-02-15T22:36:47.098Z,11.61
2024-02-15T22:39:13.189Z,11.62
2024-02-15T22:41:39.258Z,11.65
2024-02-15T22:44:05.169Z,11.69
2024-02-15T22:46:31.170Z,11.72
2024-02-15T22:48:57.424Z,11.74
2024-02-15T22:51:24.793Z,11.76
2024-02-15T22:53:50.929Z,11.83
2024-02-15T22:56:16.978Z,11.94
2024-02-15T22:58:43.185Z,11.98
2024-02-15T23:01:10.756Z,12.00
2024-02-15T23:03:37.968Z,12.01
2024-02-15T23:06:04.354Z,11.99
2024-02-15T23:08:31.288Z,12.05
2024-02-15T23:10:57.366Z,12.07
2024-02-15T23:13:23.392Z,12.11
2024-02-15T23:15:50.570Z,12.14
2024-02-15T23:18:16.598Z,12.19
2024-02-15T23:20:42.983Z,12.19
2024-02-15T23:23:08.952Z,12.25
2024-02-15T23:25:35.534Z,12.32
2024-02-15T23:28:01.532Z,12.33
2024-02-15T23:30:27.677Z,12.33
2024-02-15T23:32:53.749Z,12.37
2024-02-15T23:35:19.714Z,12.33
2024-02-15T23:37:45.643Z,12.40
2024-02-15T23:40:12.059Z,12.44
2024-02-15T23:42:38.611Z,12.44
2024-02-15T23:45:05.661Z,12.48
2024-02-15T23:47:31.586Z,12.48
2024-02-15T23:49:57.720Z,12.50
2024-02-15T23:52:23.796Z,12.52
2024-02-15T23:54:49.941Z,12.50
2024-02-15T23:57:15.976Z,12.49
2024-02-15T23:59:42.581Z,12.50
